Nearby METAR Reports

 

EGEO - Oban, United Kingdom
Distance from station: SSW 18mi, 30km
Updated: 21/02/2019 15:20
Partly cloudy
Partly cloudy
 Wind from SE
Wind: SE 9 mph , 15 km/h
Temperature: 13°C
Dew Point: 10°C
Humidity: 82%
Barometer: 1019 hPa
Clouds: Partly cloudy
Visibility: 6 miles , 10 km
Cloud details: Few Clouds 457 m
Partly cloudy 1006 m
2019/02/21 15:20 EGEO 211520Z 13008KT 9999 FEW015 SCT033 13/10 Q1019
EGPU - Tiree, United Kingdom
Distance from station: WSW 64mi, 103km
Updated: 21/02/2019 15:20
Few Clouds
Few Clouds
 Wind from SE
Wind: SE 22 mph , 35 km/h
Temperature: 10°C
Wind Chill: 6°C
Dew Point: 9°C
Humidity: 94%
Barometer: 1016 hPa
Clouds: Few Clouds
Visibility: 6 miles , 9 km
Cloud details: Few Clouds 640 m
2019/02/21 15:20 EGPU 211520Z 14019KT 9000 FEW021 10/09 Q1016
EGPF - Glasgow, United Kingdom
Distance from station: SSE 66mi, 107km
Updated: 21/02/2019 15:20
Mostly cloudy
Mostly cloudy
 Wind from S
Wind: S 14 mph , 22 km/h
Temperature: 13°C
Dew Point: 9°C
Humidity: 77%
Barometer: 1021 hPa
Clouds: Mostly cloudy
Visibility: 6 miles , 10 km
Cloud details: Mostly cloudy 640 m
Mostly cloudy 792 m
2019/02/21 15:20 EGPF 211520Z AUTO 19012KT 9999 BKN021 BKN026 13/09 Q1021
 
EGPE - Inverness, United Kingdom
Distance from station: NE 71mi, 114km
Updated: 21/02/2019 15:20
Few Clouds
Few Clouds
 Wind from SW
Wind: SW 13 mph , 20 km/h
Temperature: 14°C
Dew Point: 11°C
Humidity: 82%
Barometer: 1017 hPa
Clouds: Few Clouds
Visibility: 6 miles , 10 km
Cloud details: Few Clouds 792 m
2019/02/21 15:20 EGPE 211520Z 22011KT 9999 FEW026 14/11 Q1017
EGPI - Islay/Port Ellen, United Kingdom
Distance from station: SSW 81mi, 131km
Updated: 21/02/2019 15:20
Partly cloudy
Partly cloudy
 Wind from SE
Wind: SE 17 mph , 28 km/h
Temperature: 11°C
Dew Point: 9°C
Humidity: 88%
Barometer: 1018 hPa
Clouds: Partly cloudy
Visibility: 6 miles , 10 km
Cloud details: Few Clouds 244 m
Partly cloudy 732 m
2019/02/21 15:20 EGPI 211520Z 13015KT 100V170 9999 FEW008 SCT024 11/09 Q1018
EGPN - Dundee/Riverside, United Kingdom
Distance from station: E 86mi, 138km
Updated: 21/02/2019 15:20
Few Clouds
Few Clouds
 Wind from W
Wind: W 12 mph , 19 km/h
Temperature: 12°C
Dew Point: 9°C
Humidity: 82%
Barometer: 1020 hPa
Clouds: Few Clouds
Visibility: 6 miles , 10 km
Cloud details: Few Clouds 762 m
2019/02/21 15:20 EGPN 211520Z 27010KT 9999 FEW025 12/09 Q1020
 
EGPK - Prestwick, United Kingdom
Distance from station: SSE 88mi, 141km
Updated: 21/02/2019 15:20
Partly cloudy
Partly cloudy
 Wind from SSE
Wind: SSE 10 mph , 17 km/h
Temperature: 12°C
Dew Point: 10°C
Humidity: 88%
Barometer: 1022 hPa
Clouds: Partly cloudy
Visibility: 6 miles , 10 km
Cloud details: Partly cloudy 457 m
2019/02/21 15:20 EGPK 211520Z 16009KT 9999 SCT015 12/10 Q1022
EGPH - Edinburgh, United Kingdom
Distance from station: SE 89mi, 143km
Updated: 21/02/2019 15:20
Few Clouds
Few Clouds
 Wind from SW
Wind: SW 21 mph , 33 km/h
Temperature: 12°C
Dew Point: 8°C
Humidity: 77%
Barometer: 1021 hPa
Clouds: Few Clouds
Visibility: 6 miles , 10 km
Cloud details: Few Clouds 579 m
2019/02/21 15:20 EGPH 211520Z 23018KT 9999 FEW019 12/08 Q1021
EGQK - RAF Kinloss, United Kingdom
Distance from station: NE 90mi, 144km
Updated: 21/02/2019 14:50
Few Clouds
Few Clouds
 Wind from W
Wind: W 3 mph , 6 km/h
Temperature: 16°C
Dew Point: 11°C
Humidity: 72%
Barometer: 1017 hPa
Clouds: Few Clouds
Visibility: 6 miles , 10 km
Cloud details: Few Clouds 884 m
2019/02/21 14:50 EGQK 211450Z AUTO 26003KT 9999 FEW029/// 16/11 Q1017
 
EGEC - Campbeltown, United Kingdom
Distance from station: S 90mi, 145km
Updated: 21/02/2019 15:20
Partly cloudy
Partly cloudy
 Wind from ESE
Wind: ESE 16 mph , 26 km/h
Temperature: 11°C
Dew Point: 9°C
Humidity: 88%
Barometer: 1019 hPa
Clouds: Partly cloudy
Visibility: 6 miles , 10 km
Cloud details: Partly cloudy 244 m
Partly cloudy 732 m
2019/02/21 15:20 EGEC 211520Z 11014KT 9999 SCT008 SCT024 11/09 Q1019
EGQA - Tain Range, United Kingdom
Distance from station: NNE 91mi, 146km
Updated: 21/02/2019 13:50
NOT Current
Partly cloudy
Partly cloudy
 Wind from SSW
Wind: SSW 16 mph , 26 km/h, Gust: 29 mph , 46 km/h
Clouds: Partly cloudy
Visibility: 6 miles , 10 km
Cloud details: Few Clouds 671 m
Partly cloudy 853 m
2019/02/21 13:50 EGQA 211350Z 21014G25KT 9999 FEW022 SCT028 17/// Q1016 BLU
EGQL - RAF Leuchars, United Kingdom
Distance from station: ESE 93mi, 149km
Updated: 21/02/2019 14:50
Mostly cloudy
Mostly cloudy
 Wind from WSW
Wind: WSW 14 mph , 22 km/h
Temperature: 14°C
Dew Point: 10°C
Humidity: 77%
Barometer: 1020 hPa
Clouds: Mostly cloudy
Visibility: 6 miles , 10 km
Cloud details: Partly cloudy 914 m
Mostly cloudy 3048 m
2019/02/21 14:50 EGQL 211450Z 25012KT 9999 SCT030 BKN100 14/10 Q1020 BLU
 
EGPL - Benbecula, United Kingdom
Distance from station: WNW 96mi, 154km
Updated: 21/02/2019 15:20
Partly cloudy
Partly cloudy
 Wind from SSE
Wind: SSE 18 mph , 30 km/h
Temperature: 13°C
Dew Point: 10°C
Humidity: 82%
Barometer: 1014 hPa
Clouds: Partly cloudy
Visibility: 6 miles , 10 km
Cloud details: Few Clouds 274 m
Partly cloudy 914 m
2019/02/21 15:20 EGPL 211520Z 16016KT 9999 FEW009 SCT030 13/10 Q1014
EGQS - RAF Lossiemouth, United Kingdom
Distance from station: NE 99mi, 160km
Updated: 21/02/2019 14:50
Mostly cloudy
Mostly cloudy
 Wind from SSW
Wind: SSW 5 mph , 7 km/h
Temperature: 17°C
Dew Point: 11°C
Humidity: 68%
Barometer: 1017 hPa
Clouds: Mostly cloudy
Visibility: 6 miles , 10 km
Cloud details: Few Clouds 732 m
Partly cloudy 2743 m
Mostly cloudy 7620 m
2019/02/21 14:50 EGQS 211450Z 21004KT 9999 FEW024 SCT090 BKN250 17/11 Q1017 BLU NOSIG
EGPO - Stornoway, United Kingdom
Distance from station: NNW 111mi, 179km
Updated: 21/02/2019 15:20
Mostly cloudy
Mostly cloudy
 Wind from S
Wind: S 14 mph , 22 km/h
Temperature: 11°C
Dew Point: 9°C
Humidity: 88%
Barometer: 1015 hPa
Clouds: Mostly cloudy
Visibility: 6 miles , 10 km
Cloud details: Few Clouds 274 m
Partly cloudy 457 m
Mostly cloudy 610 m
2019/02/21 15:20 EGPO 211520Z 18012KT 9999 FEW009 SCT015 BKN020 11/09 Q1015
 
EGPD - Aberdeen/Dyce, United Kingdom
Distance from station: ENE 118mi, 190km
Updated: 21/02/2019 15:20
Clear
Clear
 Wind from SW
Wind: SW 10 mph , 17 km/h
Temperature: 15°C
Dew Point: 10°C
Humidity: 72%
Barometer: 1018 hPa
Clouds: Clear
Visibility: 6 miles , 10 km
2019/02/21 15:20 EGPD 211520Z AUTO 23009KT 9999 NCD 15/10 Q1018 NOSIG
EGAE - Eglinton/Londond, United Kingdom
Distance from station: SSW 138mi, 222km
Updated: 21/02/2019 15:20
Few Clouds
Few Clouds
 Wind from S
Wind: S 22 mph , 35 km/h, Gust: 36 mph , 57 km/h
Temperature: 15°C
Dew Point: 9°C
Humidity: 68%
Barometer: 1016 hPa
Clouds: Few Clouds
Visibility: 6 miles , 10 km
Cloud details: Few Clouds 732 m
2019/02/21 15:20 EGAE 211520Z 18019G31KT 160V230 9999 FEW024 15/09 Q1016
EGPC - Wick, United Kingdom
Distance from station: NNE 144mi, 232km
Updated: 21/02/2019 15:20
Clear
Clear
 Wind from S
Wind: S 10 mph , 17 km/h
Temperature: 12°C
Dew Point: 10°C
Humidity: 88%
Barometer: 1017 hPa
Summary: Clear
Visibility: greater than 7 miles , 10 km
2019/02/21 15:20 EGPC 211520Z 19009KT CAVOK 12/10 Q1017

Metar display script from Saratoga-Weather.org